Time;durP1;ratioP1;P1;durP2;ratioP2;P2;SDS_P1;SDS_P2;PMS_P1;PMS_P2;Temp;Humidity;BMP_temperature;BMP_pressure;BME280_temperature;BME280_humidity;BME280_pressure;Samples;Min_cycle;Max_cycle;Signal;HPM_P1;HPM_P2
2023/12/30 04:01:57;;;;;;;1.00;0.50;;;23.90;32.50;;;;;;5347474;22;48223;-39
2023/12/30 04:04:23;;;;;;;0.90;0.50;;;23.90;32.90;;;;;;4969985;28;45465;-39
2023/12/30 04:06:48;;;;;;;0.70;0.40;;;23.90;32.50;;;;;;4977450;28;45279;-39
2023/12/30 04:09:16;;;;;;;0.80;0.40;;;23.90;32.50;;;;;;4986027;28;60492;-39
2023/12/30 04:11:41;;;;;;;1.20;0.57;;;23.90;32.60;;;;;;4966970;28;45666;-38
2023/12/30 04:14:07;;;;;;;0.70;0.50;;;23.90;32.60;;;;;;4977764;28;45236;-39
2023/12/30 04:16:32;;;;;;;0.55;0.50;;;23.90;32.50;;;;;;4933311;28;46152;-39
2023/12/30 04:18:58;;;;;;;0.88;0.52;;;23.90;32.50;;;;;;4947685;28;45254;-39
2023/12/30 04:21:24;;;;;;;0.90;0.43;;;23.90;32.50;;;;;;4966356;28;46131;-44
2023/12/30 04:23:49;;;;;;;0.85;0.57;;;23.90;32.50;;;;;;4981228;28;45394;-44
2023/12/30 04:26:15;;;;;;;0.97;0.40;;;23.90;32.50;;;;;;4969622;28;45704;-45
2023/12/30 04:28:40;;;;;;;0.90;0.50;;;23.90;32.50;;;;;;4983273;28;45457;-45
2023/12/30 04:31:06;;;;;;;0.80;0.50;;;23.90;32.60;;;;;;4951647;28;45901;-45
2023/12/30 04:33:31;;;;;;;0.90;0.50;;;23.90;32.60;;;;;;4979367;28;45248;-42
2023/12/30 04:35:57;;;;;;;1.23;0.50;;;23.90;32.60;;;;;;4932534;28;46019;-42
2023/12/30 04:38:22;;;;;;;1.05;0.57;;;23.90;32.60;;;;;;4964332;28;45280;-42
2023/12/30 04:40:48;;;;;;;0.85;0.50;;;23.90;32.60;;;;;;4963310;28;46123;-44
2023/12/30 04:43:14;;;;;;;0.98;0.50;;;23.90;32.60;;;;;;4971252;28;46245;-42
2023/12/30 04:45:40;;;;;;;0.60;0.47;;;23.90;32.60;;;;;;4957902;28;45250;-44
2023/12/30 04:48:06;;;;;;;1.07;0.67;;;23.90;32.60;;;;;;4972090;28;45318;-42
2023/12/30 04:50:32;;;;;;;1.05;0.50;;;23.80;32.50;;;;;;4962664;28;45824;-42
2023/12/30 04:52:58;;;;;;;1.00;0.50;;;23.80;32.60;;;;;;4977896;28;45146;-44
2023/12/30 04:55:24;;;;;;;0.40;0.37;;;23.80;32.60;;;;;;4966434;28;45136;-45
2023/12/30 04:57:50;;;;;;;0.73;0.40;;;23.80;32.60;;;;;;4973687;28;44951;-43
2023/12/30 05:00:16;;;;;;;0.90;0.60;;;23.80;32.60;;;;;;4960664;28;45446;-44
2023/12/30 05:02:41;;;;;;;0.95;0.50;;;23.80;32.60;;;;;;4981017;28;45498;-43
2023/12/30 05:05:08;;;;;;;0.60;0.40;;;23.80;32.60;;;;;;4990989;28;45251;-46
2023/12/30 05:07:33;;;;;;;0.70;0.50;;;23.80;32.70;;;;;;4975551;28;45234;-42
2023/12/30 05:09:59;;;;;;;1.10;0.50;;;23.80;32.70;;;;;;4996495;28;45569;-43
2023/12/30 05:12:25;;;;;;;1.00;0.40;;;23.80;32.70;;;;;;4980225;28;45645;-44
2023/12/30 05:14:50;;;;;;;0.40;0.40;;;23.80;32.70;;;;;;4998577;28;45419;-45
2023/12/30 05:17:16;;;;;;;1.02;0.52;;;23.80;32.70;;;;;;4971556;28;45233;-43
2023/12/30 05:19:41;;;;;;;0.70;0.50;;;23.80;32.70;;;;;;4990629;28;45233;-43
2023/12/30 05:22:07;;;;;;;0.60;0.50;;;23.80;32.70;;;;;;4982072;28;45611;-43
2023/12/30 05:24:32;;;;;;;0.90;0.60;;;23.80;32.80;;;;;;4992400;28;45312;-43
2023/12/30 05:26:58;;;;;;;0.70;0.40;;;23.80;32.70;;;;;;4987044;28;45276;-42
2023/12/30 05:29:24;;;;;;;0.63;0.40;;;23.70;32.70;;;;;;4992841;28;45279;-45
2023/12/30 05:31:49;;;;;;;0.77;0.40;;;23.80;32.80;;;;;;4978158;28;45261;-42
2023/12/30 05:34:15;;;;;;;0.47;0.30;;;23.70;32.70;;;;;;4973097;28;45337;-47
2023/12/30 05:36:40;;;;;;;0.80;0.50;;;23.70;32.70;;;;;;4986185;28;45225;-42
2023/12/30 05:39:06;;;;;;;0.90;0.57;;;23.80;32.80;;;;;;4992186;28;46044;-46
2023/12/30 05:41:31;;;;;;;0.47;0.40;;;23.70;32.70;;;;;;4986262;28;44845;-43
2023/12/30 05:43:57;;;;;;;0.60;0.50;;;23.70;32.80;;;;;;4999447;28;45425;-44
2023/12/30 05:46:22;;;;;;;0.80;0.30;;;23.80;32.90;;;;;;4964741;28;45555;-42
2023/12/30 05:48:48;;;;;;;0.60;0.43;;;23.70;32.80;;;;;;4995777;28;45368;-41
2023/12/30 05:51:13;;;;;;;1.10;0.40;;;23.70;32.80;;;;;;4978985;28;45453;-43
2023/12/30 05:53:42;;;;;;;0.50;0.40;;;23.70;32.90;;;;;;4996904;28;44649;-46
2023/12/30 05:56:07;;;;;;;0.77;0.40;;;23.70;32.90;;;;;;4986136;28;45377;-46
2023/12/30 05:58:34;;;;;;;0.70;0.50;;;23.70;32.90;;;;;;4997888;28;45651;-45
2023/12/30 06:01:01;;;;;;;0.88;0.40;;;23.70;32.90;;;;;;4978408;28;45403;-44
2023/12/30 06:03:26;;;;;;;0.80;0.50;;;23.70;32.90;;;;;;4996087;28;45555;-43
2023/12/30 06:05:52;;;;;;;0.70;0.40;;;23.70;32.90;;;;;;4991329;28;45293;-44
2023/12/30 06:08:17;;;;;;;0.88;0.52;;;23.70;32.90;;;;;;4980071;28;46319;-44
2023/12/30 06:10:43;;;;;;;0.50;0.40;;;23.60;32.90;;;;;;4985139;28;45616;-43
2023/12/30 06:13:09;;;;;;;0.45;0.40;;;23.60;32.90;;;;;;4991069;28;45330;-47
2023/12/30 06:15:39;;;;;;;0.88;0.40;;;23.60;32.90;;;;;;4979207;28;45185;-47
2023/12/30 06:18:07;;;;;;;0.73;0.47;;;23.60;33.00;;;;;;4956195;28;45587;-43
2023/12/30 06:20:32;;;;;;;0.80;0.40;;;23.60;32.90;;;;;;4973946;28;45509;-44
2023/12/30 06:22:58;;;;;;;0.73;0.30;;;23.60;32.90;;;;;;4971851;28;45170;-46
2023/12/30 06:25:23;;;;;;;0.70;0.50;;;23.60;32.90;;;;;;4982520;28;45505;-42
2023/12/30 06:27:49;;;;;;;0.73;0.40;;;23.60;32.90;;;;;;4991605;28;46141;-43
2023/12/30 06:30:15;;;;;;;0.77;0.47;;;23.60;33.00;;;;;;4978101;28;45443;-47
2023/12/30 06:32:40;;;;;;;1.47;0.50;;;23.60;33.00;;;;;;4989957;28;44947;-43
2023/12/30 06:35:06;;;;;;;0.70;0.47;;;23.60;33.00;;;;;;4991582;28;45292;-46
2023/12/30 06:37:32;;;;;;;1.10;0.40;;;23.60;33.00;;;;;;4932386;28;46490;-43
2023/12/30 06:39:57;;;;;;;1.00;0.40;;;23.60;33.00;;;;;;4995178;28;45347;-45
2023/12/30 06:42:23;;;;;;;0.40;0.40;;;23.60;33.00;;;;;;4979502;28;45286;-45
2023/12/30 06:44:49;;;;;;;0.50;0.40;;;23.60;33.00;;;;;;4998662;28;45189;-43
2023/12/30 06:47:14;;;;;;;0.80;0.40;;;23.50;33.00;;;;;;4956958;28;45589;-43
2023/12/30 06:49:40;;;;;;;1.20;0.50;;;23.50;33.00;;;;;;4997953;28;44972;-42
2023/12/30 06:52:06;;;;;;;0.75;0.50;;;23.50;33.00;;;;;;4982618;28;45406;-45
2023/12/30 06:54:32;;;;;;;1.42;0.52;;;23.50;33.00;;;;;;4993494;28;45995;-45
2023/12/30 06:56:58;;;;;;;0.50;0.40;;;23.50;33.70;;;;;;4968342;28;45832;-43
2023/12/30 06:59:23;;;;;;;0.65;0.50;;;23.50;33.10;;;;;;4974524;28;45422;-44
2023/12/30 07:01:50;;;;;;;1.05;0.40;;;23.50;33.10;;;;;;4979058;28;45380;-44
2023/12/30 07:04:15;;;;;;;1.02;0.50;;;23.50;33.10;;;;;;4992725;28;45276;-44
2023/12/30 07:06:41;;;;;;;0.40;0.30;;;23.50;33.10;;;;;;4982859;28;46080;-45
2023/12/30 07:09:07;;;;;;;1.00;0.60;;;23.50;33.10;;;;;;4979584;28;45134;-45
2023/12/30 07:11:32;;;;;;;0.85;0.43;;;23.50;33.10;;;;;;4977929;28;45496;-44
2023/12/30 07:13:58;;;;;;;0.60;0.40;;;23.50;33.10;;;;;;4997208;28;45094;-42
2023/12/30 07:16:23;;;;;;;0.73;0.60;;;23.50;33.10;;;;;;4971464;28;46272;-43
2023/12/30 07:18:49;;;;;;;1.23;0.50;;;23.50;33.20;;;;;;4993314;28;45303;-45
2023/12/30 07:21:14;;;;;;;0.88;0.40;;;23.50;33.20;;;;;;4985836;28;46690;-46
2023/12/30 07:23:40;;;;;;;0.65;0.50;;;23.50;33.20;;;;;;4957961;28;45284;-43
2023/12/30 07:26:07;;;;;;;1.45;0.40;;;23.50;33.20;;;;;;4981454;28;45663;-43
2023/12/30 07:28:32;;;;;;;1.40;0.50;;;23.50;33.20;;;;;;4971345;28;45243;-43
2023/12/30 07:30:58;;;;;;;0.65;0.38;;;23.50;33.20;;;;;;4977434;28;45435;-42
2023/12/30 07:33:23;;;;;;;1.30;0.40;;;23.50;33.20;;;;;;4988108;28;45875;-44
2023/12/30 07:35:49;;;;;;;1.25;0.40;;;23.50;33.20;;;;;;4982165;28;45676;-45
2023/12/30 07:38:14;;;;;;;1.50;0.52;;;23.50;33.30;;;;;;4972623;28;44973;-44
2023/12/30 07:40:40;;;;;;;0.65;0.40;;;23.40;33.90;;;;;;4983509;28;45342;-42
2023/12/30 07:43:05;;;;;;;1.30;0.50;;;23.50;33.30;;;;;;4995302;28;44613;-42
2023/12/30 07:45:31;;;;;;;1.10;0.50;;;23.50;33.30;;;;;;4976978;28;45750;-46
2023/12/30 07:47:56;;;;;;;0.63;0.50;;;23.40;33.30;;;;;;4991428;28;45598;-44
2023/12/30 07:50:22;;;;;;;0.90;0.47;;;23.40;33.20;;;;;;4979683;28;45176;-46
2023/12/30 07:52:47;;;;;;;0.50;0.40;;;23.40;33.30;;;;;;4967950;28;45328;-43
2023/12/30 07:55:13;;;;;;;0.67;0.50;;;23.40;33.30;;;;;;4988492;28;45963;-48
2023/12/30 07:57:38;;;;;;;1.13;0.43;;;23.40;33.30;;;;;;4972124;28;45714;-46
2023/12/30 08:00:07;;;;;;;1.40;0.50;;;23.40;33.30;;;;;;4993933;28;45499;-46
2023/12/30 08:02:32;;;;;;;1.08;0.40;;;23.40;33.30;;;;;;4925439;28;45974;-45
2023/12/30 08:04:59;;;;;;;1.23;0.57;;;23.40;33.40;;;;;;4990331;28;46018;-44
2023/12/30 08:07:25;;;;;;;0.57;0.30;;;23.40;33.40;;;;;;4964296;28;45542;-45
2023/12/30 08:09:51;;;;;;;1.25;0.60;;;23.30;33.50;;;;;;4996519;28;45521;-45
2023/12/30 08:12:16;;;;;;;1.45;0.60;;;23.40;33.40;;;;;;4982528;28;45873;-44
2023/12/30 08:14:42;;;;;;;1.00;0.40;;;23.30;33.40;;;;;;4992289;28;45944;-43
2023/12/30 08:17:07;;;;;;;1.20;0.40;;;23.40;33.50;;;;;;4975547;28;45989;-45
2023/12/30 08:19:33;;;;;;;1.00;0.60;;;23.30;33.50;;;;;;4987665;28;45395;-45
2023/12/30 08:21:58;;;;;;;1.50;0.50;;;23.30;33.50;;;;;;4985734;28;45370;-45
2023/12/30 08:24:24;;;;;;;1.23;0.60;;;23.40;33.50;;;;;;4987744;28;46128;-43
2023/12/30 08:26:50;;;;;;;1.30;0.50;;;23.30;33.50;;;;;;4985154;28;45533;-43
2023/12/30 08:29:15;;;;;;;1.50;0.50;;;23.30;33.60;;;;;;4990527;28;44976;-46
2023/12/30 08:31:47;;;;;;;1.08;0.45;;;23.30;34.20;;;;;;4970637;28;45315;-49
2023/12/30 08:34:13;;;;;;;0.77;0.53;;;23.30;33.60;;;;;;4990727;28;45550;-45
2023/12/30 08:36:38;;;;;;;1.38;0.70;;;23.30;33.60;;;;;;4979121;28;45682;-44
2023/12/30 08:39:04;;;;;;;0.93;0.43;;;23.30;33.60;;;;;;4994659;28;45438;-45
2023/12/30 08:41:29;;;;;;;1.63;0.52;;;23.30;33.60;;;;;;4974236;28;45378;-42
2023/12/30 08:43:58;;;;;;;1.08;0.50;;;23.30;33.70;;;;;;4993986;28;46538;-43
2023/12/30 08:46:24;;;;;;;1.40;0.50;;;23.30;33.70;;;;;;4970992;28;45256;-44
2023/12/30 08:48:49;;;;;;;0.88;0.60;;;23.30;33.70;;;;;;4970883;28;45156;-44
2023/12/30 08:51:15;;;;;;;0.90;0.57;;;23.30;33.70;;;;;;4979412;28;45372;-45
2023/12/30 08:53:40;;;;;;;1.20;0.60;;;23.30;33.80;;;;;;4989963;28;46138;-43
2023/12/30 08:56:06;;;;;;;0.97;0.60;;;23.30;33.70;;;;;;4983098;28;45525;-44
2023/12/30 08:58:32;;;;;;;1.03;0.40;;;23.20;33.70;;;;;;4989246;28;45192;-42
2023/12/30 09:00:57;;;;;;;1.30;0.60;;;23.30;33.80;;;;;;4971098;28;45897;-42
2023/12/30 09:03:23;;;;;;;0.60;0.40;;;23.20;33.80;;;;;;4973080;28;45998;-43
2023/12/30 09:05:48;;;;;;;1.77;0.53;;;23.20;33.80;;;;;;4961303;28;45471;-45
2023/12/30 09:08:14;;;;;;;1.03;0.50;;;23.30;33.80;;;;;;4997066;28;45559;-43
2023/12/30 09:10:40;;;;;;;1.83;0.60;;;23.30;33.80;;;;;;4977895;28;45314;-45
2023/12/30 09:13:05;;;;;;;1.60;0.60;;;23.20;33.80;;;;;;4992925;28;46168;-44
2023/12/30 09:15:31;;;;;;;1.60;0.70;;;23.20;33.90;;;;;;4976321;28;45405;-46
2023/12/30 09:17:58;;;;;;;0.90;0.50;;;23.20;33.90;;;;;;4988323;28;45681;-45
2023/12/30 09:20:24;;;;;;;1.38;0.50;;;23.20;33.90;;;;;;4981477;28;45340;-45
2023/12/30 09:22:50;;;;;;;1.50;0.60;;;23.20;33.90;;;;;;4971071;28;46195;-45
2023/12/30 09:25:15;;;;;;;1.48;0.60;;;23.20;33.90;;;;;;4984673;28;45025;-44
2023/12/30 09:27:41;;;;;;;1.13;0.50;;;23.20;34.00;;;;;;4988677;28;44912;-43
2023/12/30 09:30:11;;;;;;;1.33;0.50;;;23.20;34.00;;;;;;4991578;28;45192;-47
2023/12/30 09:32:37;;;;;;;0.95;0.50;;;23.20;34.00;;;;;;4975378;28;46014;-44
2023/12/30 09:35:04;;;;;;;1.35;0.63;;;23.20;34.00;;;;;;4993541;28;45289;-45
2023/12/30 09:37:29;;;;;;;1.23;0.50;;;23.20;34.10;;;;;;4953659;28;45963;-44
2023/12/30 09:39:55;;;;;;;1.17;0.50;;;23.20;34.00;;;;;;4984467;28;45322;-45
2023/12/30 09:42:20;;;;;;;1.30;0.60;;;23.20;34.00;;;;;;4983266;28;46465;-45
2023/12/30 09:44:46;;;;;;;1.20;0.60;;;23.20;34.00;;;;;;4995906;28;45343;-40
2023/12/30 09:47:13;;;;;;;4.22;0.60;;;23.20;34.20;;;;;;4940594;28;45690;-45
2023/12/30 09:49:38;;;;;;;4.22;0.77;;;23.20;34.20;;;;;;4972384;28;45960;-45
2023/12/30 09:52:07;;;;;;;3.80;0.70;;;23.20;34.30;;;;;;4987969;28;44954;-44
2023/12/30 09:54:34;;;;;;;5.25;0.73;;;23.30;34.40;;;;;;5000551;28;45251;-42
2023/12/30 09:57:00;;;;;;;4.50;0.50;;;23.30;34.60;;;;;;4986390;28;46838;-45
2023/12/30 09:59:40;;;;;;;5.68;0.68;;;23.20;34.50;;;;;;5000508;28;45402;-42
2023/12/30 10:02:09;;;;;;;4.70;0.90;;;23.20;34.50;;;;;;4940063;28;46176;-44
2023/12/30 10:04:35;;;;;;;3.72;0.80;;;23.20;34.50;;;;;;4947170;28;45390;-45
2023/12/30 10:07:01;;;;;;;5.17;0.80;;;23.20;34.40;;;;;;4986138;28;45347;-45
2023/12/30 10:09:27;;;;;;;2.83;0.67;;;23.20;34.40;;;;;;4997148;28;45256;-43
2023/12/30 10:11:52;;;;;;;2.35;0.60;;;23.20;34.40;;;;;;4966703;28;45901;-44
2023/12/30 10:14:18;;;;;;;2.63;0.70;;;23.20;34.40;;;;;;4967460;28;45615;-47
2023/12/30 10:16:44;;;;;;;3.47;0.77;;;23.20;34.40;;;;;;4972709;28;45678;-43
2023/12/30 10:19:10;;;;;;;2.20;0.47;;;23.20;34.40;;;;;;4976045;28;45400;-44
2023/12/30 10:21:39;;;;;;;1.50;0.60;;;23.20;34.40;;;;;;4981379;28;45288;-46
2023/12/30 10:24:05;;;;;;;1.60;0.70;;;23.20;34.40;;;;;;4997003;28;45585;-44
2023/12/30 10:26:36;;;;;;;2.88;0.60;;;23.10;34.30;;;;;;4985440;28;46567;-44
2023/12/30 10:29:02;;;;;;;1.95;0.80;;;23.20;34.40;;;;;;4989023;28;45697;-44
2023/12/30 10:31:28;;;;;;;1.98;0.80;;;23.20;34.40;;;;;;4976192;28;45605;-49
2023/12/30 10:33:54;;;;;;;1.27;0.60;;;23.10;34.30;;;;;;4942422;28;45285;-44
2023/12/30 10:36:19;;;;;;;2.65;0.60;;;23.10;34.30;;;;;;4982375;28;45210;-44
2023/12/30 10:38:45;;;;;;;1.70;0.60;;;23.10;34.30;;;;;;4952745;28;45559;-47
2023/12/30 10:41:11;;;;;;;1.27;0.60;;;23.10;34.30;;;;;;4964043;28;45731;-44
2023/12/30 10:43:38;;;;;;;3.03;0.63;;;23.10;34.30;;;;;;4993854;28;45288;-44
2023/12/30 10:46:05;;;;;;;1.35;0.50;;;23.10;34.30;;;;;;4954010;28;45377;-44
2023/12/30 10:48:32;;;;;;;1.70;0.55;;;23.20;34.50;;;;;;4961419;28;45748;-44
2023/12/30 10:50:59;;;;;;;1.65;0.57;;;23.10;34.40;;;;;;4942842;28;45395;-43
2023/12/30 10:53:44;;;;;;;1.60;0.60;;;23.10;34.40;;;;;;4998224;28;45292;-43
2023/12/30 10:56:10;;;;;;;1.13;0.50;;;23.10;34.30;;;;;;4985396;28;45101;-46
2023/12/30 10:58:35;;;;;;;1.67;0.63;;;23.10;34.40;;;;;;4975324;28;45400;-43
2023/12/30 11:01:03;;;;;;;2.27;0.67;;;23.10;34.40;;;;;;4939843;28;46664;-45
2023/12/30 11:03:31;;;;;;;1.42;0.63;;;23.10;34.40;;;;;;4980504;28;45271;-44
2023/12/30 11:06:17;;;;;;;1.17;0.50;;;23.10;34.40;;;;;;4965708;28;45886;-44
2023/12/30 11:08:44;;;;;;;1.15;0.55;;;23.10;34.40;;;;;;4989375;28;45188;-48
2023/12/30 11:11:11;;;;;;;1.80;0.63;;;23.10;34.40;;;;;;4940721;28;47151;-44
2023/12/30 11:13:39;;;;;;;1.40;0.57;;;23.10;34.40;;;;;;4965482;28;45301;-44
2023/12/30 11:16:15;;;;;;;1.13;0.60;;;23.10;34.40;;;;;;4941398;28;45399;-40
2023/12/30 11:18:45;;;;;;;1.67;0.45;;;23.10;34.40;;;;;;4990162;28;46049;-39
2023/12/30 11:21:11;;;;;;;0.80;0.30;;;23.10;34.40;;;;;;4976581;28;45963;-41
2023/12/30 11:23:36;;;;;;;1.58;0.47;;;23.10;34.40;;;;;;4968061;28;45466;-40
2023/12/30 11:26:04;;;;;;;1.50;0.60;;;23.10;34.50;;;;;;4963526;28;45212;-40
2023/12/30 11:28:30;;;;;;;1.83;0.70;;;23.10;34.50;;;;;;4997756;28;45584;-40
2023/12/30 11:30:57;;;;;;;1.20;0.70;;;23.10;34.50;;;;;;4953621;28;48060;-41
2023/12/30 11:33:22;;;;;;;1.80;0.93;;;23.00;34.50;;;;;;4971770;28;44947;-39
2023/12/30 11:35:50;;;;;;;3.07;1.00;;;23.10;34.50;;;;;;4978036;28;45299;-41
2023/12/30 11:38:16;;;;;;;1.75;1.20;;;23.10;34.50;;;;;;4998591;28;44871;-39
2023/12/30 11:40:42;;;;;;;1.95;1.35;;;23.00;34.50;;;;;;4964995;28;46080;-40
2023/12/30 11:43:10;;;;;;;2.78;1.70;;;23.10;34.60;;;;;;4975070;28;45004;-39
2023/12/30 11:45:37;;;;;;;3.67;2.00;;;23.10;34.50;;;;;;4946795;28;45421;-39
2023/12/30 11:48:03;;;;;;;2.83;1.80;;;23.00;34.50;;;;;;4971867;28;46147;-40
2023/12/30 11:50:28;;;;;;;2.40;1.60;;;23.00;34.50;;;;;;4982576;28;45448;-40
2023/12/30 11:52:55;;;;;;;3.87;1.80;;;23.00;34.60;;;;;;4974360;28;45280;-39
2023/12/30 11:55:22;;;;;;;3.35;2.20;;;23.00;34.60;;;;;;4991304;28;45389;-38
2023/12/30 11:57:48;;;;;;;5.15;2.17;;;23.00;34.60;;;;;;4999720;28;45863;-40
2023/12/30 12:00:14;;;;;;;2.55;2.08;;;23.00;34.70;;;;;;4965113;28;45718;-39
2023/12/30 12:02:40;;;;;;;2.72;2.20;;;23.00;34.70;;;;;;4984191;28;46260;-40
2023/12/30 12:05:07;;;;;;;4.40;2.40;;;23.00;34.70;;;;;;4974683;28;45558;-40
2023/12/30 12:07:33;;;;;;;3.13;2.35;;;23.00;34.70;;;;;;4986139;28;45800;-40
2023/12/30 12:09:59;;;;;;;2.43;1.93;;;23.00;34.70;;;;;;4993586;28;46905;-40
2023/12/30 12:12:25;;;;;;;5.13;2.37;;;23.00;34.80;;;;;;4980983;28;48919;-40
2023/12/30 12:14:51;;;;;;;3.10;1.90;;;23.00;34.80;;;;;;4998345;28;45592;-38
2023/12/30 12:17:19;;;;;;;3.33;2.00;;;23.00;34.80;;;;;;4959920;28;45637;-40
2023/12/30 12:19:48;;;;;;;3.08;2.13;;;23.00;34.80;;;;;;4978645;28;45485;-40
2023/12/30 12:22:13;;;;;;;4.25;1.90;;;23.00;34.80;;;;;;4977215;28;46151;-39
2023/12/30 12:24:40;;;;;;;2.23;1.70;;;23.00;34.80;;;;;;4995696;28;45491;-39
2023/12/30 12:27:05;;;;;;;3.03;1.70;;;23.00;34.80;;;;;;4961867;28;45426;-40
2023/12/30 12:29:31;;;;;;;2.75;1.70;;;23.00;34.80;;;;;;4995940;28;46842;-42
2023/12/30 12:31:57;;;;;;;2.27;1.60;;;23.00;34.90;;;;;;4972254;28;45397;-40
2023/12/30 12:34:23;;;;;;;2.53;1.63;;;22.90;34.80;;;;;;4974865;28;45613;-38
2023/12/30 12:36:49;;;;;;;2.65;1.80;;;22.90;34.80;;;;;;4969492;28;45550;-39
2023/12/30 12:39:15;;;;;;;2.65;1.70;;;22.90;34.80;;;;;;4992347;28;46328;-39
2023/12/30 12:41:41;;;;;;;2.30;1.60;;;23.00;34.90;;;;;;4987784;28;45304;-40
2023/12/30 12:44:06;;;;;;;2.05;1.50;;;22.90;34.80;;;;;;4990797;28;46210;-40
2023/12/30 12:46:32;;;;;;;2.20;1.40;;;22.90;34.80;;;;;;4975692;28;45256;-40
2023/12/30 12:48:59;;;;;;;2.10;1.27;;;22.90;34.90;;;;;;4990894;28;46158;-39
2023/12/30 12:51:26;;;;;;;2.33;1.33;;;22.90;34.80;;;;;;4934127;28;45946;-39
2023/12/30 12:53:52;;;;;;;2.38;1.40;;;22.90;34.80;;;;;;4982976;28;45892;-39
2023/12/30 12:56:17;;;;;;;2.38;1.30;;;22.90;34.90;;;;;;4985375;28;45462;-39
2023/12/30 12:58:43;;;;;;;2.45;1.30;;;22.90;34.90;;;;;;4994647;28;45519;-39
2023/12/30 13:01:08;;;;;;;1.92;1.20;;;22.90;34.90;;;;;;4972047;28;45659;-40
2023/12/30 13:03:34;;;;;;;1.67;1.30;;;22.90;34.90;;;;;;4970052;28;45349;-40
2023/12/30 13:06:10;;;;;;;1.70;1.20;;;22.90;34.90;;;;;;4964907;28;45204;-40
2023/12/30 13:08:36;;;;;;;1.70;1.20;;;22.90;34.90;;;;;;4997101;28;46073;-39
2023/12/30 13:11:02;;;;;;;1.30;1.00;;;22.90;34.90;;;;;;4966319;28;45487;-39
2023/12/30 13:13:29;;;;;;;1.97;1.20;;;22.90;34.90;;;;;;4997133;28;45275;-39
2023/12/30 13:16:00;;;;;;;1.30;1.00;;;22.90;34.90;;;;;;4946713;28;45184;-39
2023/12/30 13:18:28;;;;;;;1.63;0.90;;;22.90;34.90;;;;;;4995331;28;45961;-41
2023/12/30 13:20:55;;;;;;;1.33;0.90;;;22.90;35.00;;;;;;4957886;28;45736;-39
2023/12/30 13:23:21;;;;;;;1.70;1.05;;;22.90;35.00;;;;;;4985861;28;44997;-39
2023/12/30 13:25:47;;;;;;;1.90;1.10;;;22.90;35.00;;;;;;4968539;28;45697;-39
2023/12/30 13:28:14;;;;;;;1.70;1.00;;;22.90;35.00;;;;;;4992192;28;45388;-40
2023/12/30 13:30:40;;;;;;;1.30;0.90;;;22.90;35.00;;;;;;4979821;28;45182;-39
2023/12/30 13:33:09;;;;;;;2.17;1.23;;;22.90;35.00;;;;;;4959111;28;45609;-40
2023/12/30 13:35:36;;;;;;;2.00;0.93;;;22.90;35.00;;;;;;4984560;28;45832;-39
2023/12/30 13:38:12;;;;;;;1.13;0.77;;;22.90;35.00;;;;;;4990506;28;45907;-39
2023/12/30 13:40:39;;;;;;;1.30;0.80;;;22.80;35.60;;;;;;4969781;28;45661;-40
2023/12/30 13:43:09;;;;;;;1.58;0.80;;;22.90;35.00;;;;;;4967682;28;45388;-39
2023/12/30 13:45:46;;;;;;;1.67;0.90;;;22.90;35.00;;;;;;4979702;28;45658;-38
2023/12/30 13:50:48;;;;;;;1.50;0.90;;;22.90;35.00;;;;;;4981504;28;51159;-39
2023/12/30 13:53:15;;;;;;;0.93;0.70;;;22.90;35.00;;;;;;4989254;28;45356;-39
2023/12/30 13:55:41;;;;;;;1.30;0.70;;;22.90;35.00;;;;;;4973608;28;46149;-39
2023/12/30 13:58:07;;;;;;;1.23;0.80;;;22.90;35.00;;;;;;4977905;28;46165;-39
2023/12/30 14:00:34;;;;;;;1.30;0.88;;;22.90;35.00;;;;;;4960795;28;46944;-38
2023/12/30 14:03:03;;;;;;;0.95;0.70;;;22.90;35.00;;;;;;4991665;28;44955;-39
2023/12/30 14:05:33;;;;;;;1.27;0.73;;;22.80;35.00;;;;;;4960400;28;47595;-38
2023/12/30 14:08:09;;;;;;;1.05;0.70;;;22.90;35.10;;;;;;4973205;28;47071;-39
2023/12/30 14:10:35;;;;;;;1.98;0.90;;;22.90;35.00;;;;;;4981694;28;45519;-39
2023/12/30 14:13:01;;;;;;;1.33;0.70;;;22.90;35.00;;;;;;4974883;28;45610;-39
2023/12/30 14:15:27;;;;;;;1.15;0.65;;;22.90;35.00;;;;;;4977399;28;45810;-40
2023/12/30 14:17:52;;;;;;;0.95;0.60;;;22.90;35.10;;;;;;4957215;28;47948;-40
2023/12/30 14:20:18;;;;;;;1.80;0.90;;;22.90;35.10;;;;;;4984993;28;45261;-38
2023/12/30 14:22:44;;;;;;;0.80;0.60;;;22.90;35.10;;;;;;4977696;28;45520;-40
2023/12/30 14:25:11;;;;;;;1.73;0.70;;;22.90;35.10;;;;;;4988109;28;45451;-39
2023/12/30 14:27:38;;;;;;;1.35;0.80;;;22.90;35.10;;;;;;4992722;28;46153;-38
2023/12/30 14:30:08;;;;;;;2.07;1.07;;;22.90;35.10;;;;;;4940015;28;45141;-39
2023/12/30 14:32:34;;;;;;;1.73;0.80;;;22.90;35.10;;;;;;4977657;28;45744;-39
2023/12/30 14:35:00;;;;;;;1.13;0.70;;;22.80;35.00;;;;;;4954854;28;45662;-40
2023/12/30 14:37:26;;;;;;;1.60;0.80;;;22.80;35.00;;;;;;4942157;28;46433;-39
2023/12/30 14:39:52;;;;;;;1.50;0.73;;;22.80;35.10;;;;;;4983645;28;45626;-38
2023/12/30 14:42:19;;;;;;;1.13;0.60;;;22.80;35.10;;;;;;4966775;28;45613;-40
2023/12/30 14:44:44;;;;;;;1.55;0.60;;;22.80;35.10;;;;;;4979763;28;45964;-39
2023/12/30 14:47:10;;;;;;;0.87;0.70;;;22.80;35.10;;;;;;4965206;28;46076;-40
2023/12/30 14:49:36;;;;;;;1.20;0.77;;;22.80;35.00;;;;;;4967982;28;45840;-41
2023/12/30 14:52:01;;;;;;;3.20;1.60;;;22.80;35.10;;;;;;4962080;28;45529;-38
2023/12/30 14:54:27;;;;;;;3.93;3.03;;;22.80;35.10;;;;;;4971197;28;46921;-39
2023/12/30 14:56:53;;;;;;;4.83;3.30;;;22.80;35.10;;;;;;4970143;28;47071;-40
2023/12/30 14:59:19;;;;;;;4.32;3.03;;;22.80;35.10;;;;;;4979672;28;45549;-39
2023/12/30 15:01:44;;;;;;;4.43;2.63;;;22.80;35.10;;;;;;4952195;28;45447;-39
2023/12/30 15:04:10;;;;;;;3.73;2.47;;;22.80;35.10;;;;;;4972153;28;45237;-39
2023/12/30 15:06:36;;;;;;;3.40;2.00;;;22.80;35.10;;;;;;4959296;28;45357;-46
2023/12/30 15:09:04;;;;;;;3.30;1.93;;;22.80;35.10;;;;;;4975447;28;45276;-45
2023/12/30 15:11:30;;;;;;;2.63;1.83;;;22.80;35.10;;;;;;4947812;28;45443;-47
2023/12/30 15:13:55;;;;;;;2.60;1.70;;;22.80;35.10;;;;;;4979772;28;45592;-43
2023/12/30 15:16:21;;;;;;;2.90;1.53;;;22.80;35.10;;;;;;4967881;28;45612;-43
2023/12/30 15:18:47;;;;;;;2.33;1.50;;;22.80;35.10;;;;;;4981631;28;45437;-45
2023/12/30 15:21:12;;;;;;;2.40;1.40;;;22.90;35.20;;;;;;4944929;28;45415;-39
2023/12/30 15:23:38;;;;;;;3.63;1.87;;;22.80;35.10;;;;;;4970409;28;45248;-38
2023/12/30 15:26:03;;;;;;;2.53;1.30;;;22.90;35.10;;;;;;4974864;28;46442;-39
2023/12/30 15:28:29;;;;;;;2.47;1.40;;;22.90;35.10;;;;;;4974220;28;45531;-39
2023/12/30 15:30:54;;;;;;;3.10;1.60;;;22.90;35.10;;;;;;4966385;28;45358;-38
2023/12/30 15:33:20;;;;;;;3.40;1.60;;;22.90;35.00;;;;;;4950812;28;45601;-38
2023/12/30 15:35:45;;;;;;;2.90;1.30;;;22.90;35.00;;;;;;4948592;28;45844;-39
2023/12/30 15:38:11;;;;;;;2.10;1.20;;;22.90;35.00;;;;;;4964747;28;45528;-38
2023/12/30 15:40:40;;;;;;;3.30;1.27;;;22.90;34.90;;;;;;4966753;28;45363;-38
2023/12/30 15:43:06;;;;;;;2.95;1.30;;;22.90;34.90;;;;;;4971047;28;46451;-40
2023/12/30 15:45:31;;;;;;;2.25;1.20;;;23.00;34.90;;;;;;4956140;28;47625;-39
2023/12/30 15:47:57;;;;;;;2.53;1.20;;;23.00;34.90;;;;;;4956768;28;45917;-40
2023/12/30 15:50:22;;;;;;;2.60;1.20;;;23.00;34.80;;;;;;4965775;28;46108;-39
2023/12/30 15:52:48;;;;;;;4.57;1.10;;;23.00;34.80;;;;;;4972126;28;45383;-40
2023/12/30 15:55:14;;;;;;;2.22;1.20;;;23.00;34.70;;;;;;4932287;28;46263;-39
2023/12/30 15:57:40;;;;;;;3.00;1.60;;;23.10;34.70;;;;;;4938851;28;46740;-39
2023/12/30 16:00:09;;;;;;;2.88;1.20;;;23.10;34.70;;;;;;4968917;28;47635;-39
2023/12/30 16:02:35;;;;;;;1.75;0.98;;;23.10;34.60;;;;;;4929934;28;48107;-39
2023/12/30 16:05:02;;;;;;;2.30;1.10;;;23.10;34.60;;;;;;4966050;28;45273;-39
2023/12/30 16:07:27;;;;;;;2.85;1.30;;;23.10;34.60;;;;;;4925068;28;45277;-40
2023/12/30 16:09:53;;;;;;;3.03;1.35;;;23.10;34.50;;;;;;4942183;28;45220;-41
2023/12/30 16:12:19;;;;;;;3.13;1.48;;;23.10;34.40;;;;;;4943267;28;45954;-40
2023/12/30 16:14:45;;;;;;;1.95;1.10;;;23.20;34.40;;;;;;4978515;28;46757;-39
2023/12/30 16:17:11;;;;;;;2.70;1.30;;;23.20;34.40;;;;;;4954707;28;45806;-40
2023/12/30 16:19:37;;;;;;;2.50;1.30;;;23.20;34.30;;;;;;4971926;28;45632;-40
2023/12/30 16:22:03;;;;;;;2.53;1.48;;;23.20;34.30;;;;;;4943477;28;45680;-39
2023/12/30 16:24:28;;;;;;;2.65;1.40;;;23.30;34.30;;;;;;4958597;28;45884;-39
2023/12/30 16:26:54;;;;;;;2.92;1.63;;;23.30;34.20;;;;;;4957966;28;45447;-40
2023/12/30 16:29:19;;;;;;;4.60;1.70;;;23.30;34.10;;;;;;4971023;28;45519;-41
2023/12/30 16:31:45;;;;;;;2.40;1.50;;;23.30;34.10;;;;;;4956502;28;45874;-39
2023/12/30 16:34:10;;;;;;;4.03;2.00;;;23.30;34.00;;;;;;4953614;28;45488;-40
2023/12/30 16:36:36;;;;;;;3.33;1.80;;;23.30;34.00;;;;;;4965186;28;45231;-39
2023/12/30 16:39:02;;;;;;;3.50;1.80;;;23.40;33.90;;;;;;4975360;28;45062;-40
2023/12/30 16:41:27;;;;;;;4.37;2.00;;;23.40;33.90;;;;;;4931113;28;45741;-40
2023/12/30 16:43:53;;;;;;;4.50;2.10;;;23.40;33.80;;;;;;4970336;28;45338;-39
2023/12/30 16:46:18;;;;;;;4.37;2.27;;;23.40;33.70;;;;;;4955166;28;45835;-39